KSLG/SLG METAR and TAF weather

Enter ICAO airport designator
Station Type Date Time Source
KSLG METAR 2019/08/17 10:56 UTC NOAA

KSLG 171056Z AUTO 00000KT 10SM CLR 22/19 A2996 RMK AO2 SLP133 T02220194


Station Type Date Time Source
KSLG Decoded METAR 2019/08/17 10:56 UTC NOAA

Station name not available
Aug 17, 2019 - 06:56 AM EDT / 2019.08.17 1056 UTC
Wind: Calm:0
Visibility: 10 mile(s):0
Sky conditions: clear
Temperature: 72.0 F (22.2 C)
Dew Point: 66.9 F (19.4 C)
Relative Humidity: 84%
Pressure (altimeter): 29.96 in. Hg (1014 hPa)
ob: KSLG 171056Z AUTO 00000KT 10SM CLR 22/19 A2996 RMK AO2 SLP133 T02220194
cycle: 11

Station Type Date Time Source
KSLG TAF UTC NOAA

Error!

Example: see airport list